createdAt,value
2023-01-28T00:01:54.194Z,22.85
2023-01-28T00:04:20.904Z,21.75
2023-01-28T00:06:47.624Z,24.73
2023-01-28T00:09:14.453Z,22.42
2023-01-28T00:11:41.243Z,22.20
2023-01-28T00:14:08.392Z,21.58
2023-01-28T00:16:35.184Z,20.17
2023-01-28T00:19:01.920Z,24.50
2023-01-28T00:21:28.678Z,19.98
2023-01-28T00:23:56.755Z,21.17
2023-01-28T00:26:25.311Z,23.17
2023-01-28T00:28:52.283Z,19.65
2023-01-28T00:31:22.008Z,21.33
2023-01-28T00:33:52.658Z,21.08
2023-01-28T00:36:21.115Z,21.00
2023-01-28T00:38:56.229Z,23.33
2023-01-28T00:41:25.557Z,21.77
2023-01-28T00:43:53.049Z,21.10
2023-01-28T00:46:21.840Z,23.08
2023-01-28T00:48:48.813Z,21.80
2023-01-28T00:51:17.893Z,22.55
2023-01-28T00:53:44.776Z,22.05
2023-01-28T00:56:14.104Z,22.17
2023-01-28T00:58:41.265Z,19.55
2023-01-28T01:01:16.384Z,19.20
2023-01-28T01:03:43.523Z,21.77
2023-01-28T01:06:11.839Z,24.25
2023-01-28T01:08:42.677Z,23.45
2023-01-28T01:11:11.740Z,22.80
2023-01-28T01:13:38.659Z,22.67
2023-01-28T01:16:08.974Z,22.08
2023-01-28T01:18:36.289Z,21.15
2023-01-28T01:21:03.273Z,20.88
2023-01-28T01:23:32.060Z,22.13
2023-01-28T01:25:59.021Z,21.85
2023-01-28T01:28:25.809Z,22.55
2023-01-28T01:31:03.665Z,20.08
2023-01-28T01:33:31.469Z,20.08
2023-01-28T01:35:59.563Z,21.52
2023-01-28T01:38:27.600Z,21.67
2023-01-28T01:41:04.016Z,21.48
2023-01-28T01:44:00.875Z,23.75
2023-01-28T01:49:32.693Z,21.25
2023-01-28T01:52:13.028Z,23.20
2023-01-28T01:54:44.290Z,18.95
2023-01-28T01:57:16.141Z,22.58
2023-01-28T01:59:44.446Z,23.67
2023-01-28T02:02:12.871Z,21.67
2023-01-28T02:04:44.738Z,20.63
2023-01-28T02:07:14.601Z,21.20
2023-01-28T02:09:41.705Z,22.48
2023-01-28T02:12:17.249Z,21.05
2023-01-28T02:14:53.060Z,22.33
2023-01-28T02:17:20.534Z,22.23
2023-01-28T02:20:01.900Z,22.42
2023-01-28T02:22:34.545Z,20.83
2023-01-28T02:25:45.051Z,21.30
2023-01-28T02:28:44.709Z,20.92
2023-01-28T02:31:17.881Z,20.95
2023-01-28T02:33:53.669Z,22.40
2023-01-28T02:36:46.752Z,20.67
2023-01-28T02:39:21.889Z,21.92
2023-01-28T02:42:09.448Z,22.67
2023-01-28T02:44:36.364Z,22.58
2023-01-28T02:47:21.660Z,22.27
2023-01-28T02:49:54.829Z,22.80
2023-01-28T02:53:13.783Z,22.48
2023-01-28T02:55:55.960Z,21.27
2023-01-28T02:58:37.486Z,21.70
2023-01-28T03:01:11.030Z,21.48
2023-01-28T03:03:52.910Z,20.85
2023-01-28T03:06:24.180Z,21.92
2023-01-28T03:09:13.434Z,22.15
2023-01-28T03:12:04.955Z,21.55
2023-01-28T03:14:52.475Z,23.35
2023-01-28T03:18:05.333Z,23.02
2023-01-28T03:21:00.504Z,22.27
2023-01-28T03:23:51.732Z,21.90
2023-01-28T03:26:41.255Z,21.80
2023-01-28T03:29:31.439Z,22.85
2023-01-28T03:32:18.291Z,22.20
2023-01-28T03:35:06.064Z,19.95
2023-01-28T03:37:33.754Z,22.02
2023-01-28T03:40:07.874Z,19.83
2023-01-28T03:42:34.899Z,20.75
2023-01-28T03:45:04.171Z,22.63
2023-01-28T03:47:32.304Z,21.40
2023-01-28T03:50:02.234Z,20.27
2023-01-28T03:52:32.100Z,20.00
2023-01-28T03:54:59.495Z,21.02
2023-01-28T03:57:28.083Z,22.45
2023-01-28T03:59:54.987Z,22.48
2023-01-28T04:02:23.124Z,22.58
2023-01-28T04:04:50.432Z,22.17
2023-01-28T04:07:17.656Z,21.55
2023-01-28T04:09:44.915Z,21.75
2023-01-28T04:12:11.713Z,20.88
2023-01-28T04:14:40.203Z,21.35
2023-01-28T04:17:10.716Z,22.25
2023-01-28T04:19:37.771Z,20.70
2023-01-28T04:22:10.393Z,21.40
2023-01-28T04:24:37.115Z,22.25
2023-01-28T04:27:03.948Z,21.70
2023-01-28T04:29:31.748Z,21.48
2023-01-28T04:31:58.617Z,20.75
2023-01-28T04:34:25.349Z,19.75
2023-01-28T04:36:52.055Z,19.38
2023-01-28T04:39:18.812Z,19.05
2023-01-28T04:41:45.587Z,22.25
2023-01-28T04:44:13.736Z,23.42
2023-01-28T04:46:40.516Z,18.77
2023-01-28T04:49:07.286Z,21.73
2023-01-28T04:51:34.017Z,20.35
2023-01-28T04:54:00.746Z,20.65
2023-01-28T04:56:27.526Z,22.75
2023-01-28T04:58:54.241Z,19.83
2023-01-28T05:01:21.020Z,19.90
2023-01-28T05:03:47.796Z,19.92
2023-01-28T05:06:14.529Z,19.98
2023-01-28T05:08:41.233Z,20.00
2023-01-28T05:11:08.199Z,19.13
2023-01-28T05:13:34.937Z,20.25
2023-01-28T05:16:01.680Z,21.10
2023-01-28T05:18:28.432Z,19.17
2023-01-28T05:20:55.197Z,19.48
2023-01-28T05:23:22.077Z,24.27
2023-01-28T05:25:49.147Z,25.88
2023-01-28T05:28:16.567Z,25.77
2023-01-28T05:30:43.448Z,19.27
2023-01-28T05:33:10.180Z,20.90
2023-01-28T05:35:36.943Z,18.25
2023-01-28T05:38:04.047Z,20.23
2023-01-28T05:40:30.951Z,21.30
2023-01-28T05:42:57.696Z,19.48
2023-01-28T05:45:24.572Z,16.77
2023-01-28T05:47:51.376Z,18.63
2023-01-28T05:50:18.348Z,18.25
2023-01-28T05:52:45.171Z,18.02
2023-01-28T05:55:12.022Z,17.88
2023-01-28T05:57:38.801Z,17.85
2023-01-28T06:00:06.466Z,17.85
2023-01-28T06:02:33.263Z,19.23
2023-01-28T06:05:00.486Z,19.23
2023-01-28T06:07:27.345Z,18.77
2023-01-28T06:09:54.259Z,18.38
2023-01-28T06:12:21.021Z,17.15
2023-01-28T06:14:47.751Z,17.60
2023-01-28T06:17:14.549Z,17.45
2023-01-28T06:19:41.476Z,17.23
2023-01-28T06:22:08.516Z,16.55
2023-01-28T06:24:35.241Z,17.88
2023-01-28T06:27:02.130Z,18.90
2023-01-28T06:29:28.852Z,18.60
2023-01-28T06:31:55.594Z,19.20
2023-01-28T06:34:22.398Z,17.67
2023-01-28T06:36:50.913Z,18.27
2023-01-28T06:39:17.712Z,17.75
2023-01-28T06:41:44.400Z,18.38
2023-01-28T06:44:11.339Z,17.85
2023-01-28T06:46:38.359Z,18.58
2023-01-28T06:49:05.145Z,16.60
2023-01-28T06:51:32.053Z,17.58
2023-01-28T06:53:58.780Z,18.05
2023-01-28T06:56:25.791Z,18.23
2023-01-28T06:58:52.577Z,18.48
2023-01-28T07:01:19.284Z,20.00
2023-01-28T07:03:46.091Z,18.95
2023-01-28T07:06:12.896Z,19.23
2023-01-28T07:08:41.322Z,22.98
2023-01-28T07:11:08.405Z,20.65
2023-01-28T07:13:35.243Z,21.85
2023-01-28T07:16:02.046Z,20.52
2023-01-28T07:18:28.776Z,20.88
2023-01-28T07:20:56.443Z,20.02
2023-01-28T07:23:23.441Z,21.17
2023-01-28T07:25:50.215Z,18.85
2023-01-28T07:28:21.496Z,19.45
2023-01-28T07:30:52.460Z,18.45
2023-01-28T07:33:20.377Z,19.65
2023-01-28T07:35:47.612Z,21.10
2023-01-28T07:38:14.401Z,20.45
2023-01-28T07:40:42.627Z,20.70
2023-01-28T07:43:09.896Z,20.20
2023-01-28T07:45:36.986Z,19.80
2023-01-28T07:48:07.030Z,20.60
2023-01-28T07:50:36.354Z,20.25
2023-01-28T07:53:05.741Z,21.52
2023-01-28T07:55:32.554Z,22.52
2023-01-28T08:00:58.410Z,22.02
2023-01-28T08:03:26.466Z,20.77
2023-01-28T08:05:55.513Z,23.73
2023-01-28T08:08:27.276Z,21.30
2023-01-28T08:10:54.339Z,22.63
2023-01-28T08:13:21.335Z,20.60
2023-01-28T08:15:48.373Z,21.60
2023-01-28T08:18:17.357Z,20.05
2023-01-28T08:20:46.318Z,20.92
2023-01-28T08:23:15.599Z,18.55
2023-01-28T08:25:42.805Z,20.40
2023-01-28T08:28:10.615Z,21.35
2023-01-28T08:30:45.950Z,20.33
2023-01-28T08:33:15.282Z,20.85
2023-01-28T08:35:42.247Z,19.70
2023-01-28T08:38:10.683Z,18.30
2023-01-28T08:40:37.849Z,22.05
2023-01-28T08:43:05.081Z,20.35
2023-01-28T08:45:32.449Z,18.33
2023-01-28T08:48:07.116Z,19.75
2023-01-28T08:50:36.676Z,20.00
2023-01-28T08:53:07.510Z,20.05
2023-01-28T08:55:34.864Z,19.27
2023-01-28T08:58:06.793Z,19.38
2023-01-28T09:00:34.733Z,16.42
2023-01-28T09:03:03.255Z,21.77
2023-01-28T09:05:32.977Z,19.92
2023-01-28T09:08:10.498Z,21.50
2023-01-28T09:10:50.723Z,21.63
2023-01-28T09:13:28.969Z,21.92
2023-01-28T09:15:58.903Z,21.95
2023-01-28T09:18:25.660Z,23.05
2023-01-28T09:24:29.757Z,21.38
2023-01-28T09:27:02.524Z,20.15
2023-01-28T09:29:29.228Z,20.05
2023-01-28T09:31:56.025Z,21.77
2023-01-28T09:34:22.780Z,20.50
2023-01-28T09:36:49.479Z,19.45
2023-01-28T09:39:16.249Z,22.33
2023-01-28T09:42:03.785Z,20.38
2023-01-28T09:44:57.677Z,20.85
2023-01-28T09:47:29.958Z,22.25
2023-01-28T09:50:03.360Z,23.63
2023-01-28T09:52:34.256Z,22.25
2023-01-28T09:55:36.264Z,21.63
2023-01-28T09:58:11.583Z,21.65
2023-01-28T10:00:59.255Z,22.42
2023-01-28T10:03:38.344Z,21.92
2023-01-28T10:06:15.702Z,20.00
2023-01-28T10:08:52.459Z,19.83
2023-01-28T10:11:38.277Z,21.13
2023-01-28T10:14:23.193Z,18.63
2023-01-28T10:17:06.181Z,19.80
2023-01-28T10:19:51.848Z,20.30
2023-01-28T10:22:26.300Z,19.95
2023-01-28T10:25:08.278Z,19.15
2023-01-28T10:27:37.225Z,21.63
2023-01-28T10:30:27.205Z,20.42
2023-01-28T10:33:05.556Z,18.98
2023-01-28T10:35:42.669Z,17.88
2023-01-28T10:38:18.597Z,18.25
2023-01-28T10:43:22.786Z,18.77
2023-01-28T10:45:59.244Z,18.10
2023-01-28T10:48:33.183Z,17.85
2023-01-28T10:51:07.816Z,19.13
2023-01-28T10:53:43.301Z,20.63
2023-01-28T10:56:11.694Z,19.83
2023-01-28T10:58:54.152Z,18.38
2023-01-28T11:01:21.320Z,17.55
2023-01-28T11:03:58.967Z,19.02
2023-01-28T11:06:28.086Z,16.95
2023-01-28T11:08:54.933Z,17.23
2023-01-28T11:11:28.823Z,18.67
2023-01-28T11:13:58.632Z,17.50
2023-01-28T11:16:26.915Z,18.25
2023-01-28T11:19:06.270Z,19.08
2023-01-28T11:21:34.444Z,17.40
2023-01-28T11:24:06.090Z,17.88
2023-01-28T11:26:36.612Z,17.67
2023-01-28T11:29:04.024Z,18.35
2023-01-28T11:31:39.427Z,17.98
2023-01-28T11:34:06.415Z,18.77
2023-01-28T11:36:35.436Z,17.75
2023-01-28T11:39:26.072Z,18.45
2023-01-28T11:41:54.029Z,18.73
2023-01-28T11:44:26.217Z,18.45
2023-01-28T11:47:30.617Z,18.70
2023-01-28T11:50:27.075Z,18.40
2023-01-28T11:53:06.304Z,19.08
2023-01-28T11:56:13.353Z,19.10
2023-01-28T11:59:11.004Z,20.25
2023-01-28T12:02:06.039Z,19.95
2023-01-28T12:05:20.960Z,19.63
2023-01-28T12:08:23.183Z,19.38
2023-01-28T12:11:14.295Z,19.73
2023-01-28T12:14:12.659Z,19.50
2023-01-28T12:17:14.569Z,20.55
2023-01-28T12:20:05.653Z,20.52
2023-01-28T12:22:59.394Z,20.92
2023-01-28T12:25:55.797Z,21.38
2023-01-28T12:28:44.588Z,19.30
2023-01-28T12:31:30.656Z,18.27
2023-01-28T12:34:26.934Z,18.77
2023-01-28T12:37:09.414Z,17.98
2023-01-28T12:40:27.307Z,18.20
2023-01-28T12:45:40.774Z,18.42
2023-01-28T12:48:22.056Z,20.15
2023-01-28T12:50:58.925Z,19.10
2023-01-28T12:53:37.845Z,18.65
2023-01-28T12:56:15.779Z,19.50
2023-01-28T12:58:53.415Z,20.65
2023-01-28T13:01:32.655Z,18.80
2023-01-28T13:04:10.843Z,20.85
2023-01-28T13:07:10.789Z,19.90
2023-01-28T13:09:39.351Z,19.35
2023-01-28T13:12:06.900Z,19.65
2023-01-28T13:14:34.189Z,19.55
2023-01-28T13:17:28.535Z,20.23
2023-01-28T13:19:55.664Z,18.75
2023-01-28T13:22:35.258Z,20.65
2023-01-28T13:25:23.926Z,21.13
2023-01-28T13:28:01.174Z,20.05
2023-01-28T13:30:27.989Z,19.88
2023-01-28T13:33:01.333Z,19.27
2023-01-28T13:35:40.334Z,20.63
2023-01-28T13:38:25.455Z,19.58
2023-01-28T13:41:00.583Z,19.15
2023-01-28T13:43:38.075Z,20.10
2023-01-28T13:46:11.292Z,19.70
2023-01-28T13:48:54.781Z,20.35
2023-01-28T13:51:37.732Z,19.38
2023-01-28T13:54:17.003Z,18.75
2023-01-28T13:56:59.557Z,19.38
2023-01-28T13:59:36.305Z,19.63
2023-01-28T14:02:36.154Z,20.15
2023-01-28T14:05:40.019Z,20.75
2023-01-28T14:08:44.814Z,19.05
2023-01-28T14:11:29.712Z,19.38
2023-01-28T14:14:17.734Z,20.45
2023-01-28T14:17:22.089Z,19.20
2023-01-28T14:19:52.012Z,20.27
2023-01-28T14:22:20.563Z,20.15
2023-01-28T14:24:48.342Z,19.50
2023-01-28T14:27:26.718Z,21.23
2023-01-28T14:30:16.106Z,21.23
2023-01-28T14:32:49.807Z,20.05
2023-01-28T14:35:24.198Z,19.17
2023-01-28T14:37:52.227Z,21.38
2023-01-28T14:40:21.029Z,21.05
2023-01-28T14:42:52.160Z,19.98
2023-01-28T14:45:24.719Z,21.48
2023-01-28T14:48:21.276Z,20.98
2023-01-28T14:51:09.836Z,21.33
2023-01-28T14:53:45.799Z,19.58
2023-01-28T14:59:04.967Z,19.90
2023-01-28T15:01:32.144Z,20.60
2023-01-28T15:03:59.045Z,20.20
2023-01-28T15:06:31.409Z,20.17
2023-01-28T15:09:08.660Z,20.92
2023-01-28T15:11:39.482Z,20.85
2023-01-28T15:14:16.465Z,21.10
2023-01-28T15:16:48.941Z,20.73
2023-01-28T15:19:16.601Z,20.75
2023-01-28T15:21:45.534Z,22.58
2023-01-28T15:24:16.473Z,21.42
2023-01-28T15:26:47.570Z,20.73
2023-01-28T15:29:34.150Z,21.10
2023-01-28T15:32:03.953Z,21.48
2023-01-28T15:34:31.326Z,23.92
2023-01-28T15:37:01.579Z,21.70
2023-01-28T15:39:30.029Z,21.77
2023-01-28T15:42:00.855Z,22.98
2023-01-28T15:44:34.452Z,23.45
2023-01-28T15:47:03.692Z,24.92
2023-01-28T15:49:37.467Z,25.23
2023-01-28T15:52:04.644Z,24.63
2023-01-28T15:54:31.752Z,24.50
2023-01-28T15:57:28.732Z,23.70
2023-01-28T16:02:49.973Z,21.10
2023-01-28T16:05:32.264Z,22.48
2023-01-28T16:08:02.683Z,22.95
2023-01-28T16:10:30.332Z,24.13
2023-01-28T16:13:19.749Z,22.42
2023-01-28T16:15:48.291Z,24.23
2023-01-28T16:18:31.360Z,23.85
2023-01-28T16:20:59.836Z,25.05
2023-01-28T16:23:28.221Z,24.00
2023-01-28T16:26:06.463Z,25.70
2023-01-28T16:28:33.481Z,25.90
2023-01-28T16:31:00.508Z,24.23
2023-01-28T16:33:27.512Z,24.48
2023-01-28T16:36:07.773Z,22.40
2023-01-28T16:38:35.426Z,21.48
2023-01-28T16:41:02.337Z,21.90
2023-01-28T16:43:29.172Z,20.30
2023-01-28T16:45:55.941Z,20.88
2023-01-28T16:48:23.067Z,18.65
2023-01-28T16:50:49.901Z,16.95
2023-01-28T16:53:23.187Z,16.73
2023-01-28T16:55:51.328Z,18.27
2023-01-28T16:58:23.784Z,19.55
2023-01-28T17:00:50.563Z,21.95
2023-01-28T17:03:17.331Z,20.30
2023-01-28T17:05:44.193Z,21.27
2023-01-28T17:08:11.028Z,33.10
2023-01-28T17:10:37.877Z,24.60
2023-01-28T17:13:04.749Z,23.67
2023-01-28T17:15:31.594Z,21.02
2023-01-28T17:17:58.313Z,19.75
2023-01-28T17:20:25.112Z,16.25
2023-01-28T17:22:52.129Z,17.13
2023-01-28T17:25:18.928Z,16.85
2023-01-28T17:27:48.102Z,13.00
2023-01-28T17:30:15.259Z,13.55
2023-01-28T17:32:41.964Z,10.18
2023-01-28T17:35:09.078Z,9.65
2023-01-28T17:37:38.311Z,10.82
2023-01-28T17:40:05.605Z,10.18
2023-01-28T17:42:32.567Z,10.00
2023-01-28T17:45:03.119Z,10.23
2023-01-28T17:47:30.997Z,9.68
2023-01-28T17:49:58.487Z,11.00
2023-01-28T17:52:25.553Z,9.68
2023-01-28T17:54:52.269Z,9.77
2023-01-28T17:57:19.069Z,10.65
2023-01-28T17:59:46.060Z,12.50
2023-01-28T18:02:14.088Z,11.07
2023-01-28T18:04:42.243Z,12.45
2023-01-28T18:07:13.257Z,12.52
2023-01-28T18:09:41.772Z,13.13
2023-01-28T18:12:11.315Z,16.08
2023-01-28T18:14:38.837Z,14.50
2023-01-28T18:17:07.449Z,17.35
2023-01-28T18:19:34.982Z,14.48
2023-01-28T18:22:02.005Z,16.92
2023-01-28T18:24:29.875Z,16.60
2023-01-28T18:26:59.812Z,15.68
2023-01-28T18:29:27.895Z,14.10
2023-01-28T18:31:55.536Z,14.90
2023-01-28T18:34:24.206Z,15.98
2023-01-28T18:36:51.216Z,14.10
2023-01-28T18:39:19.544Z,12.32
2023-01-28T18:41:46.791Z,14.13
2023-01-28T18:44:15.230Z,12.38
2023-01-28T18:46:42.539Z,11.90
2023-01-28T18:49:09.483Z,12.45
2023-01-28T18:51:36.281Z,11.25
2023-01-28T18:54:07.416Z,12.88
2023-01-28T18:56:36.542Z,13.48
2023-01-28T18:59:05.425Z,12.38
2023-01-28T19:01:34.346Z,12.23
2023-01-28T19:04:01.825Z,12.13
2023-01-28T19:06:30.826Z,13.48
2023-01-28T19:09:00.914Z,12.35
2023-01-28T19:11:29.404Z,13.88
2023-01-28T19:13:56.706Z,11.80
2023-01-28T19:16:23.982Z,13.40
2023-01-28T19:18:53.868Z,13.23
2023-01-28T19:21:21.333Z,13.55
2023-01-28T19:23:53.217Z,13.70
2023-01-28T19:26:21.377Z,14.13
2023-01-28T19:28:49.605Z,14.70
2023-01-28T19:31:18.849Z,14.07
2023-01-28T19:33:46.358Z,14.95
2023-01-28T19:36:13.894Z,14.43
2023-01-28T19:38:42.631Z,14.80
2023-01-28T19:41:09.448Z,13.43
2023-01-28T19:43:36.259Z,13.48
2023-01-28T19:48:38.403Z,12.48
2023-01-28T19:51:07.572Z,13.00
2023-01-28T19:53:38.385Z,11.73
2023-01-28T19:56:08.931Z,12.05
2023-01-28T19:58:37.763Z,12.80
2023-01-28T20:01:10.410Z,12.85
2023-01-28T20:03:38.034Z,12.85
2023-01-28T20:06:07.580Z,12.00
2023-01-28T20:08:34.597Z,10.80
2023-01-28T20:11:23.535Z,11.27
2023-01-28T20:13:51.865Z,11.23
2023-01-28T20:16:24.033Z,11.80
2023-01-28T20:18:52.772Z,10.82
2023-01-28T20:21:20.080Z,15.65
2023-01-28T20:23:51.124Z,12.95
2023-01-28T20:26:21.122Z,13.38
2023-01-28T20:28:48.616Z,12.93
2023-01-28T20:31:15.999Z,13.80
2023-01-28T20:33:42.877Z,13.60
2023-01-28T20:36:11.957Z,12.23
2023-01-28T20:38:40.951Z,13.10
2023-01-28T20:41:09.536Z,13.30
2023-01-28T20:43:37.507Z,12.57
2023-01-28T20:46:05.976Z,12.00
2023-01-28T20:48:33.642Z,13.05
2023-01-28T20:51:14.823Z,13.02
2023-01-28T20:53:42.730Z,12.95
2023-01-28T20:56:11.526Z,13.45
2023-01-28T20:58:38.517Z,15.45
2023-01-28T21:01:05.518Z,14.77
2023-01-28T21:03:32.713Z,14.05
2023-01-28T21:06:01.537Z,14.13
2023-01-28T21:08:28.434Z,13.15
2023-01-28T21:10:55.241Z,13.68
2023-01-28T21:13:22.127Z,12.00
2023-01-28T21:15:56.761Z,12.35
2023-01-28T21:18:24.059Z,11.43
2023-01-28T21:20:53.595Z,11.85
2023-01-28T21:23:22.564Z,11.15
2023-01-28T21:25:52.699Z,11.27
2023-01-28T21:28:20.373Z,10.55
2023-01-28T21:30:47.664Z,10.60
2023-01-28T21:33:14.680Z,11.45
2023-01-28T21:35:43.480Z,11.82
2023-01-28T21:38:10.827Z,10.57
2023-01-28T21:40:38.559Z,11.15
2023-01-28T21:43:05.479Z,11.05
2023-01-28T21:45:32.199Z,12.13
2023-01-28T21:47:58.952Z,11.60
2023-01-28T21:50:25.992Z,11.30
2023-01-28T21:52:52.889Z,12.23
2023-01-28T21:55:19.840Z,12.55
2023-01-28T21:57:46.695Z,12.55
2023-01-28T22:00:14.285Z,13.43
2023-01-28T22:02:41.429Z,13.45
2023-01-28T22:05:08.249Z,13.10
2023-01-28T22:07:35.024Z,12.07
2023-01-28T22:10:01.805Z,12.45
2023-01-28T22:12:28.678Z,12.82
2023-01-28T22:14:55.935Z,11.52
2023-01-28T22:17:22.710Z,12.32
2023-01-28T22:19:49.441Z,12.13
2023-01-28T22:22:17.095Z,12.25
2023-01-28T22:24:43.856Z,13.55
2023-01-28T22:27:10.710Z,12.98
2023-01-28T22:29:37.477Z,12.30
2023-01-28T22:32:05.026Z,12.05
2023-01-28T22:34:32.009Z,12.70
2023-01-28T22:36:58.772Z,14.15
2023-01-28T22:39:25.587Z,12.27
2023-01-28T22:41:52.445Z,14.18
2023-01-28T22:44:20.103Z,13.88
2023-01-28T22:46:47.616Z,13.55
2023-01-28T22:49:15.154Z,13.10
2023-01-28T22:51:42.341Z,12.93
2023-01-28T22:54:11.183Z,13.18
2023-01-28T22:56:38.407Z,13.18
2023-01-28T22:59:05.306Z,14.48
2023-01-28T23:01:32.767Z,13.77
2023-01-28T23:03:59.787Z,13.38
2023-01-28T23:06:27.650Z,14.18
2023-01-28T23:08:54.657Z,13.40
2023-01-28T23:11:28.175Z,15.23
2023-01-28T23:14:19.814Z,13.15
2023-01-28T23:17:06.337Z,12.63
2023-01-28T23:19:52.067Z,13.75
2023-01-28T23:22:52.093Z,13.30
2023-01-28T23:25:20.030Z,13.88
2023-01-28T23:27:47.334Z,13.88
2023-01-28T23:30:15.594Z,15.40
2023-01-28T23:32:48.455Z,13.75
2023-01-28T23:35:15.863Z,16.33
2023-01-28T23:37:42.672Z,13.00
2023-01-28T23:40:10.052Z,15.15
2023-01-28T23:42:37.012Z,14.88
2023-01-28T23:45:04.688Z,15.88
2023-01-28T23:47:31.632Z,14.60
2023-01-28T23:49:58.483Z,15.95
2023-01-28T23:52:26.760Z,14.57
2023-01-28T23:54:53.612Z,15.20
2023-01-28T23:57:20.316Z,15.90
2023-01-28T23:59:47.038Z,15.43
